Time;durP1;ratioP1;P1;durP2;ratioP2;P2;SDS_P1;SDS_P2;PMS_P1;PMS_P2;Temp;Humidity;BMP_temperature;BMP_pressure;BME280_temperature;BME280_humidity;BME280_pressure;Samples;Min_cycle;Max_cycle;Signal;HPM_P1;HPM_P2
2021/08/19 06:10:02;;;;;;;16.08;9.70;;;;;;;;;;2550388;54;3610383;-87
2021/08/19 06:12:31;;;;;;;18.67;9.68;;;;;;;;;;2616062;46;20379;-88
2021/08/19 06:14:57;;;;;;;17.58;9.93;;;;;;;;;;2616655;54;20035;-90
2021/08/19 06:17:24;;;;;;;14.02;8.82;;;;;;;;;;2619054;46;20567;-90
2021/08/19 06:19:50;;;;;;;20.77;10.73;;;;;;;;;;2616540;54;20034;-84
2021/08/19 06:22:17;;;;;;;14.45;8.65;;;;;;;;;;2615443;47;20034;-88
2021/08/19 06:24:43;;;;;;;22.85;8.93;;;;;;;;;;2615557;46;20065;-85
2021/08/19 06:27:09;;;;;;;18.75;8.77;;;;;;;;;;2617127;47;20030;-85
2021/08/19 06:29:37;;;;;;;16.92;9.00;;;;;;;;;;2618804;46;20092;-87
2021/08/19 06:32:03;;;;;;;13.02;8.23;;;;;;;;;;2617741;46;20049;-85
2021/08/19 06:34:30;;;;;;;14.75;10.05;;;;;;;;;;2617659;46;20022;-87
2021/08/19 06:36:56;;;;;;;12.65;7.90;;;;;;;;;;2617968;46;20034;-85
2021/08/19 06:39:22;;;;;;;14.95;7.75;;;;;;;;;;2618111;47;20022;-86
2021/08/19 06:41:48;;;;;;;15.90;7.78;;;;;;;;;;2616743;47;20026;-85
2021/08/19 06:44:15;;;;;;;15.43;6.53;;;;;;;;;;2617786;47;20022;-86
2021/08/19 06:46:41;;;;;;;12.00;7.57;;;;;;;;;;2619165;46;20030;-86
2021/08/19 06:49:07;;;;;;;12.15;7.80;;;;;;;;;;2618747;46;20054;-85
2021/08/19 06:51:33;;;;;;;10.07;7.03;;;;;;;;;;2622679;54;20030;-84
2021/08/19 06:53:59;;;;;;;12.88;7.00;;;;;;;;;;2621788;46;20034;-85
2021/08/19 06:56:25;;;;;;;10.80;7.22;;;;;;;;;;2623789;47;20026;-85
2021/08/19 06:58:52;;;;;;;14.55;10.05;;;;;;;;;;2623836;38;20105;-87
2021/08/19 07:01:18;;;;;;;9.82;7.35;;;;;;;;;;2617229;46;20064;-87
2021/08/19 07:03:44;;;;;;;10.63;6.90;;;;;;;;;;2618224;50;20527;-88
2021/08/19 07:06:15;;;;;;;9.48;7.03;;;;;;;;;;2617992;54;20027;-86
2021/08/19 07:08:41;;;;;;;9.43;6.25;;;;;;;;;;2619637;46;20034;-85
2021/08/19 07:11:07;;;;;;;9.55;6.20;;;;;;;;;;2620071;47;20031;-86
2021/08/19 07:13:36;;;;;;;9.27;6.15;;;;;;;;;;2618820;46;20134;-87
2021/08/19 07:16:02;;;;;;;9.35;6.50;;;;;;;;;;2617884;54;20034;-89
2021/08/19 07:18:29;;;;;;;12.23;6.30;;;;;;;;;;2617274;46;20129;-86
2021/08/19 07:20:55;;;;;;;8.20;5.45;;;;;;;;;;2614662;47;20057;-86
2021/08/19 07:23:21;;;;;;;10.35;6.25;;;;;;;;;;2614579;46;20073;-85
2021/08/19 07:25:47;;;;;;;7.80;5.20;;;;;;;;;;2614135;47;20034;-85
2021/08/19 07:28:13;;;;;;;8.98;5.90;;;;;;;;;;2613959;47;20029;-87
2021/08/19 07:30:40;;;;;;;9.50;5.70;;;;;;;;;;2614163;47;20554;-85
2021/08/19 07:33:07;;;;;;;6.28;4.88;;;;;;;;;;2612164;47;20034;-87
2021/08/19 07:35:34;;;;;;;9.10;5.68;;;;;;;;;;2610920;47;20122;-85
2021/08/19 07:38:00;;;;;;;8.27;5.45;;;;;;;;;;2612406;54;20040;-86
2021/08/19 07:40:28;;;;;;;7.82;5.95;;;;;;;;;;2610463;47;20073;-85
2021/08/19 07:42:54;;;;;;;6.50;5.78;;;;;;;;;;2612409;47;20028;-85
2021/08/19 07:45:21;;;;;;;6.72;5.80;;;;;;;;;;2612332;47;20031;-85
2021/08/19 07:47:47;;;;;;;5.47;4.45;;;;;;;;;;2613576;47;20034;-86
2021/08/19 07:50:13;;;;;;;8.35;5.80;;;;;;;;;;2612565;47;20560;-84
2021/08/19 07:52:39;;;;;;;7.10;5.35;;;;;;;;;;2612244;47;20022;-86
2021/08/19 07:55:06;;;;;;;9.02;6.55;;;;;;;;;;2613230;47;20122;-84
2021/08/19 07:57:42;;;;;;;7.82;6.40;;;;;;;;;;2612666;46;20042;-85
2021/08/19 08:00:08;;;;;;;9.90;6.80;;;;;;;;;;2618406;47;20038;-84
2021/08/19 08:02:35;;;;;;;9.93;6.55;;;;;;;;;;2617752;47;20539;-83
2021/08/19 08:05:01;;;;;;;9.93;6.82;;;;;;;;;;2616304;54;20030;-85
2021/08/19 08:07:28;;;;;;;7.47;6.47;;;;;;;;;;2613699;51;20022;-83
2021/08/19 08:09:54;;;;;;;10.45;7.00;;;;;;;;;;2611892;54;20036;-84
2021/08/19 08:12:20;;;;;;;8.02;6.38;;;;;;;;;;2612739;47;20026;-85
2021/08/19 08:14:50;;;;;;;6.80;5.35;;;;;;;;;;2615915;46;20042;-85
2021/08/19 08:17:18;;;;;;;8.60;5.55;;;;;;;;;;2613107;46;20098;-84
2021/08/19 08:19:45;;;;;;;10.15;7.75;;;;;;;;;;2613898;47;20535;-85
2021/08/19 08:22:11;;;;;;;9.63;6.75;;;;;;;;;;2614901;47;20054;-85
2021/08/19 08:24:39;;;;;;;9.45;6.13;;;;;;;;;;2613347;54;20029;-83
2021/08/19 08:27:05;;;;;;;8.02;6.18;;;;;;;;;;2613754;54;20046;-84
2021/08/19 08:29:31;;;;;;;7.93;6.45;;;;;;;;;;2613800;47;20034;-84
2021/08/19 08:32:01;;;;;;;6.82;5.80;;;;;;;;;;2620605;47;20031;-85
2021/08/19 08:34:27;;;;;;;8.98;6.63;;;;;;;;;;2615951;47;20018;-84
2021/08/19 08:36:54;;;;;;;7.43;6.68;;;;;;;;;;2613720;46;20110;-82
2021/08/19 08:39:20;;;;;;;7.15;5.57;;;;;;;;;;2614065;39;20426;-86
2021/08/19 08:41:47;;;;;;;7.93;6.43;;;;;;;;;;2612811;46;20023;-84
2021/08/19 08:44:14;;;;;;;8.90;6.60;;;;;;;;;;2614010;39;20431;-85
2021/08/19 08:46:42;;;;;;;10.52;7.05;;;;;;;;;;2613926;39;20408;-85
2021/08/19 08:49:10;;;;;;;10.50;6.43;;;;;;;;;;2613844;47;20045;-85
2021/08/19 08:51:39;;;;;;;8.50;6.13;;;;;;;;;;2614008;54;20451;-85
2021/08/19 08:54:05;;;;;;;10.93;6.80;;;;;;;;;;2614052;54;20539;-83
2021/08/19 08:56:31;;;;;;;6.47;5.57;;;;;;;;;;2613853;46;20157;-84
2021/08/19 08:58:57;;;;;;;12.95;6.97;;;;;;;;;;2612957;46;20051;-85
2021/08/19 09:01:24;;;;;;;9.27;6.10;;;;;;;;;;2613589;46;20066;-84
2021/08/19 09:03:51;;;;;;;8.05;5.82;;;;;;;;;;2610023;47;20065;-84
2021/08/19 09:06:18;;;;;;;5.93;5.00;;;;;;;;;;2612092;47;20034;-84
2021/08/19 09:08:53;;;;;;;9.38;5.38;;;;;;;;;;2611702;54;20023;-82
2021/08/19 09:11:19;;;;;;;7.25;5.32;;;;;;;;;;2612121;47;20046;-84
2021/08/19 09:13:46;;;;;;;7.40;4.88;;;;;;;;;;2612807;54;20037;-82
2021/08/19 09:16:16;;;;;;;6.85;5.38;;;;;;;;;;2612767;54;20034;-84
2021/08/19 09:18:42;;;;;;;8.43;6.00;;;;;;;;;;2612430;47;20118;-84
2021/08/19 09:21:25;;;;;;;10.15;6.65;;;;;;;;;;2612422;54;20073;-83
2021/08/19 09:24:09;;;;;;;10.38;5.35;;;;;;;;;;2613971;39;20415;-83
2021/08/19 09:26:35;;;;;;;8.98;6.50;;;;;;;;;;2612714;39;20420;-82
2021/08/19 09:29:15;;;;;;;11.07;6.75;;;;;;;;;;2612757;54;20558;-85
2021/08/19 09:31:41;;;;;;;8.35;6.75;;;;;;;;;;2613454;47;20333;-85
2021/08/19 09:34:07;;;;;;;11.00;6.07;;;;;;;;;;2613272;54;20077;-86
2021/08/19 09:36:36;;;;;;;7.82;6.35;;;;;;;;;;2612972;47;20065;-87
2021/08/19 09:39:04;;;;;;;8.75;6.75;;;;;;;;;;2613026;47;20023;-86
2021/08/19 09:41:34;;;;;;;11.07;6.45;;;;;;;;;;2613355;47;20038;-86
2021/08/19 09:44:00;;;;;;;6.85;5.78;;;;;;;;;;2613339;47;20034;-87
2021/08/19 09:46:29;;;;;;;9.27;6.28;;;;;;;;;;2612809;47;20042;-86
2021/08/19 09:48:55;;;;;;;6.72;5.88;;;;;;;;;;2612326;47;20085;-86
2021/08/19 09:51:24;;;;;;;8.63;4.50;;;;;;;;;;2612491;47;20118;-85
2021/08/19 09:53:54;;;;;;;5.85;4.95;;;;;;;;;;2616110;54;20086;-85
2021/08/19 09:56:26;;;;;;;15.40;5.45;;;;;;;;;;2617586;47;20125;-85
2021/08/19 09:58:53;;;;;;;;;;;;;;;;;;2613741;47;20077;-86
2021/08/19 10:01:19;;;;;;;8.63;5.75;;;;;;;;;;2613248;54;19947;-87
2021/08/19 10:03:45;;;;;;;6.07;5.32;;;;;;;;;;2614093;47;20054;-86
2021/08/19 10:06:11;;;;;;;13.50;6.10;;;;;;;;;;2613733;54;20031;-85
2021/08/19 10:08:38;;;;;;;5.60;4.72;;;;;;;;;;2612252;47;20535;-85
2021/08/19 10:11:05;;;;;;;7.45;4.43;;;;;;;;;;2612177;54;20030;-85
2021/08/19 10:13:32;;;;;;;5.57;3.53;;;;;;;;;;2612249;47;20034;-86
2021/08/19 10:15:59;;;;;;;6.43;4.30;;;;;;;;;;2612914;47;20045;-85
2021/08/19 10:18:30;;;;;;;5.30;4.40;;;;;;;;;;2613019;54;20042;-87
2021/08/19 10:20:59;;;;;;;8.60;4.85;;;;;;;;;;2613506;54;20045;-86
2021/08/19 10:23:26;;;;;;;8.75;4.68;;;;;;;;;;2613081;47;20065;-88
2021/08/19 10:26:05;;;;;;;8.38;4.45;;;;;;;;;;2613049;47;20034;-86
2021/08/19 10:28:52;;;;;;;8.57;5.70;;;;;;;;;;2613441;47;20122;-88
2021/08/19 10:31:38;;;;;;;8.88;5.95;;;;;;;;;;2612652;47;20042;-85
2021/08/19 10:34:04;;;;;;;9.13;5.85;;;;;;;;;;2613698;39;20459;-85
2021/08/19 10:36:31;;;;;;;9.75;6.10;;;;;;;;;;2611626;54;20118;-85
2021/08/19 10:39:18;;;;;;;8.43;5.80;;;18.80;99.90;;;;;;2614805;47;20523;-83
2021/08/19 10:41:44;;;;;;;9.50;5.95;;;;;;;;;;2617321;47;20531;-87
2021/08/19 10:44:12;;;;;;;10.68;6.63;;;18.60;99.90;;;;;;2617337;54;20022;-86
2021/08/19 10:46:39;;;;;;;7.70;6.45;;;;;;;;;;2616188;47;20037;-86
2021/08/19 10:49:05;;;;;;;11.70;6.90;;;;;;;;;;2613260;47;20037;-90
2021/08/19 10:51:32;;;;;;;11.27;6.97;;;;;;;;;;2614894;47;20038;-89
2021/08/19 10:53:58;;;;;;;14.80;7.00;;;;;;;;;;2613879;54;20034;-88
2021/08/19 10:56:41;;;;;;;9.05;6.75;;;;;;;;;;2615561;47;20053;-87
2021/08/19 10:59:26;;;;;;;8.35;6.32;;;;;;;;;;2615160;47;20068;-88
2021/08/19 11:01:52;;;;;;;14.52;7.88;;;;;;;;;;2614701;47;20041;-87
2021/08/19 11:04:41;;;;;;;13.95;7.32;;;;;;;;;;2614036;46;20039;-87
2021/08/19 11:07:08;;;;;;;18.02;6.85;;;;;;;;;;2613951;46;20054;-89
2021/08/19 11:09:35;;;;;;;12.32;7.20;;;;;;;;;;2614537;54;20065;-89
2021/08/19 11:12:05;;;;;;;17.52;6.00;;;;;;;;;;2613661;46;20041;-88
2021/08/19 11:14:32;;;;;;;10.70;6.35;;;;;;;;;;2614922;47;20042;-87
2021/08/19 11:17:00;;;;;;;10.25;7.05;;;;;;;;;;2617193;47;20031;-89
2021/08/19 11:19:30;;;;;;;7.80;5.43;;;;;;;;;;2617277;54;20038;-89
2021/08/19 11:21:56;;;;;;;21.02;7.00;;;;;;;;;;2616263;39;20428;-87
2021/08/19 11:24:24;;;;;;;7.90;5.80;;;;;;;;;;2614898;54;20026;-87
2021/08/19 11:27:05;;;;;;;8.55;6.03;;;;;;;;;;2613895;46;20098;-89
2021/08/19 11:29:35;;;;;;;8.25;6.18;;;;;;;;;;2616691;54;20027;-88
2021/08/19 11:32:06;;;;;;;8.07;5.30;;;;;;;;;;2614880;54;20023;-89
2021/08/19 11:34:32;;;;;;;12.75;6.55;;;;;;;;;;2614199;46;20042;-88
2021/08/19 11:36:58;;;;;;;15.57;7.00;;;;;;;;;;2614764;46;20030;-88
2021/08/19 11:39:27;;;;;;;17.05;7.30;;;;;;;;;;2613755;54;20119;-89
2021/08/19 11:42:00;;;;;;;10.48;5.65;;;;;;;;;;2613539;54;20065;-90
2021/08/19 11:44:26;;;;;;;11.48;6.13;;;;;;;;;;2614437;46;20057;-89
2021/08/19 11:47:03;;;;;;;15.45;6.63;;;;;;;;;;2613896;47;20628;-87
2021/08/19 11:49:29;;;;;;;15.45;7.97;;;;;;;;;;2615739;39;20132;-88
2021/08/19 11:52:08;;;;;;;10.52;6.53;;;;;;;;;;2615139;46;20043;-88
2021/08/19 11:54:39;;;;;;;15.70;7.00;;;;;;;;;;2614482;54;20041;-89
2021/08/19 11:57:05;;;;;;;10.40;6.10;;;;;;;;;;2612840;47;20035;-89
2021/08/19 11:59:31;;;;;;;15.25;7.50;;;;;;;;;;2614071;39;20516;-86
2021/08/19 12:01:58;;;;;;;13.63;7.25;;;;;;;;;;2613273;46;20038;-87
2021/08/19 12:04:34;;;;;;;15.20;7.30;;;;;;;;;;2614123;47;20170;-87
2021/08/19 12:07:04;;;;;;;11.75;6.70;;;;;;;;;;2613530;46;20042;-87
2021/08/19 12:09:31;;;;;;;10.50;6.63;;;;;;;;;;2614838;54;20027;-86
2021/08/19 12:11:57;;;;;;;14.98;7.15;;;;;;;;;;2614288;54;20539;-87
2021/08/19 12:14:26;;;;;;;11.35;6.43;;;;;;;;;;2616107;46;20034;-87
2021/08/19 12:16:54;;;;;;;11.30;7.25;;;;;;;;;;2621816;46;20034;-86
2021/08/19 12:19:21;;;;;;;11.05;6.30;;;;;;;;;;2623219;46;20098;-87
2021/08/19 12:21:52;;;;;;;11.45;5.93;;;;;;;;;;2616161;46;20073;-88
2021/08/19 12:24:23;;;;;;;11.48;6.18;;;;;;;;;;2614783;54;20034;-85
2021/08/19 12:27:00;;;;;;;12.13;6.45;;;;;;;;;;2613753;54;20553;-86
2021/08/19 12:29:27;;;;;;;12.45;6.90;;;;;;;;;;2614707;47;20121;-85
2021/08/19 12:31:54;;;;;;;11.65;5.60;;;;;;;;;;2614292;54;20046;-86
2021/08/19 12:34:20;;;;;;;11.95;5.97;;;;;;;;;;2614800;46;20034;-87
2021/08/19 12:36:46;;;;;;;10.80;6.35;;;;;;;;;;2614678;54;20146;-85
2021/08/19 12:39:14;;;;;;;10.75;6.70;;;;;;;;;;2616127;46;20045;-85
2021/08/19 12:41:40;;;;;;;11.82;6.65;;;;;;;;;;2619468;47;20030;-85
2021/08/19 12:44:07;;;;;;;9.98;6.65;;;;;;;;;;2614825;47;20042;-86
2021/08/19 12:46:41;;;;;;;14.95;7.53;;;;;;;;;;2612134;46;20052;-86
2021/08/19 12:49:25;;;;;;;13.18;6.70;;;;;;;;;;2613585;46;20042;-86
2021/08/19 12:52:10;;;;;;;12.57;6.25;;;;;;;;;;2613552;47;20046;-87
2021/08/19 12:54:36;;;;;;;12.93;6.93;;;;;;;;;;2612780;39;20291;-87
2021/08/19 12:57:02;;;;;;;13.25;6.97;;;;;;;;;;2613432;47;20041;-87
2021/08/19 12:59:28;;;;;;;10.32;7.10;;;;;;;;;;2613135;46;20104;-85
2021/08/19 13:01:57;;;;;;;18.10;8.60;;;;;;;;;;2612157;51;20042;-85
2021/08/19 13:04:23;;;;;;;12.48;8.38;;;;;;;;;;2613462;47;20042;-86
2021/08/19 13:06:49;;;;;;;14.45;8.55;;;;;;;;;;2613840;47;20519;-88
2021/08/19 13:09:16;;;;;;;24.73;9.98;;;;;;;;;;2613745;54;20519;-85
2021/08/19 13:11:42;;;;;;;15.15;9.45;;;;;;;;;;2612985;47;20038;-84
2021/08/19 13:14:08;;;;;;;13.45;8.13;;;;;;;;;;2614083;39;20413;-85
2021/08/19 13:16:34;;;;;;;17.42;8.43;;;;;;;;;;2613951;54;20121;-85
2021/08/19 13:19:00;;;;;;;16.60;7.30;;;;;;;;;;2612592;51;20061;-85
2021/08/19 13:21:26;;;;;;;17.08;8.20;;;;;;;;;;2612946;47;20146;-85
2021/08/19 13:23:54;;;;;;;16.75;7.45;;;;;;;;;;2613948;47;20059;-85
2021/08/19 13:26:23;;;;;;;14.43;7.97;;;;;;;;;;2614227;39;20439;-92
2021/08/19 13:28:49;;;;;;;18.98;9.10;;;;;;;;;;2613936;47;20141;-85
2021/08/19 13:31:15;;;;;;;14.77;7.15;;;;;;;;;;2613600;47;20034;-86
2021/08/19 13:33:42;;;;;;;17.73;8.40;;;;;;;;;;2612553;47;20058;-88
2021/08/19 13:36:08;;;;;;;17.90;7.10;;;;;;;;;;2612447;47;20030;-85
2021/08/19 13:38:37;;;;;;;12.32;6.38;;;;;;;;;;2613985;54;20036;-86
2021/08/19 13:41:03;;;;;;;11.43;7.38;;;;;;;;;;2612481;47;20540;-85
2021/08/19 13:43:29;;;;;;;11.45;6.65;;;;;;;;;;2613592;54;20045;-85
2021/08/19 13:45:55;;;;;;;15.80;7.80;;;;;;;;;;2613065;51;20114;-86
2021/08/19 13:48:22;;;;;;;10.65;6.22;;;;;;;;;;2612885;54;20030;-85
2021/08/19 13:50:48;;;;;;;12.55;5.85;;;;;;;;;;2612427;54;20030;-85
2021/08/19 13:53:14;;;;;;;16.05;5.88;;;;;;;;;;2612667;46;20637;-84
2021/08/19 13:55:40;;;;;;;10.55;6.03;;;;;;;;;;2612962;47;20528;-86
2021/08/19 13:58:06;;;;;;;12.85;6.50;;;;;;;;;;2613426;54;20042;-84
2021/08/19 14:00:32;;;;;;;10.45;5.70;;;;;;;;;;2614778;54;20142;-85
2021/08/19 14:02:58;;;;;;;13.68;6.40;;;;;;;;;;2620374;54;20039;-86
2021/08/19 14:05:49;;;;;;;;;;;;;;;;;;;;;
2021/08/19 14:08:25;;;;;;;15.00;7.03;;;;;;;;;;2616811;54;20034;-85
2021/08/19 14:10:51;;;;;;;10.07;6.72;;;;;;;;;;2612790;51;20030;-85
2021/08/19 14:13:17;;;;;;;18.25;7.28;;;;;;;;;;2611960;51;20034;-85
2021/08/19 14:15:43;;;;;;;13.65;5.88;;;;;;;;;;2611977;47;20031;-87
2021/08/19 14:18:09;;;;;;;11.38;5.93;;;;;;;;;;2611635;54;20037;-86
2021/08/19 14:20:35;;;;;;;9.35;6.20;;;;;;;;;;2613109;51;20035;-86
2021/08/19 14:23:02;;;;;;;13.15;6.25;;;;;;;;;;2614981;47;20034;-85
2021/08/19 14:25:30;;;;;;;13.40;6.57;;;;;;;;;;2618952;47;20065;-86
2021/08/19 14:27:56;;;;;;;13.57;5.85;;;;;;;;;;2616857;47;20133;-85
2021/08/19 14:30:22;;;;;;;12.95;5.75;;;;;;;;;;2613621;39;20254;-86
2021/08/19 14:32:48;;;;;;;14.10;6.82;;;;;;;;;;2613864;54;20033;-87
2021/08/19 14:35:14;;;;;;;11.02;6.53;;;;;;;;;;2613217;47;20018;-85
2021/08/19 14:37:41;;;;;;;12.40;6.93;;;;;;;;;;2614431;47;20045;-87
2021/08/19 14:40:07;;;;;;;11.23;6.00;;;;;;;;;;2613674;47;20030;-86
2021/08/19 14:42:33;;;;;;;10.40;6.53;;;;;;;;;;2613670;47;20532;-85
2021/08/19 14:44:59;;;;;;;12.43;7.55;;;;;;;;;;2613853;54;20073;-84
2021/08/19 14:47:26;;;;;;;15.43;6.20;;;;;;;;;;2613411;47;20042;-86
2021/08/19 14:49:52;;;;;;;12.73;6.32;;;;;;;;;;2614165;46;20656;-86
2021/08/19 14:52:18;;;;;;;15.57;6.28;;;;;;;;;;2613999;47;20022;-85
2021/08/19 14:54:44;;;;;;;9.02;5.72;;;;;;;;;;2614438;46;20039;-86
2021/08/19 14:57:10;;;;;;;12.70;6.35;;;;;;;;;;2613483;46;20035;-85
2021/08/19 14:59:36;;;;;;;9.73;5.45;;;;;;;;;;2613934;54;20062;-86
2021/08/19 15:02:02;;;;;;;10.68;7.13;;;;;;;;;;2612762;47;20023;-86
2021/08/19 15:04:28;;;;;;;12.48;6.93;;;;;;;;;;2614343;47;20166;-87
2021/08/19 15:06:55;;;;;;;8.13;5.63;;;;;;;;;;2614392;47;20053;-86
2021/08/19 15:09:21;;;;;;;9.80;5.90;;;;;;;;;;2614557;47;20031;-86
2021/08/19 15:11:47;;;;;;;11.63;6.15;;;;;;;;;;2613807;47;21507;-86
2021/08/19 15:14:13;;;;;;;12.25;6.55;;;;;;;;;;2612773;47;20030;-86
2021/08/19 15:16:40;;;;;;;12.10;6.78;;;;;;;;;;2614002;47;20051;-87
2021/08/19 15:19:07;;;;;;;11.80;6.07;;;;;;;;;;2613932;47;20059;-84
2021/08/19 15:21:35;;;;;;;13.48;6.50;;;;;;;;;;2614041;47;20130;-85
2021/08/19 15:24:01;;;;;;;9.65;5.78;;;;;;;;;;2614111;46;20057;-84
2021/08/19 15:26:29;;;;;;;14.55;7.57;;;;;;;;;;2620164;47;20041;-85
2021/08/19 15:28:56;;;;;;;16.95;6.90;;;;;;;;;;2619153;47;20034;-83
2021/08/19 15:31:23;;;;;;;15.13;7.47;;;;;;;;;;2616698;39;20417;-86
2021/08/19 15:33:49;;;;;;;12.77;7.30;;;;;;;;;;2614033;54;20157;-86
2021/08/19 15:36:17;;;;;;;13.98;6.25;;;;;;;;;;2614784;46;20046;-88
2021/08/19 15:38:44;;;;;;;11.02;5.93;;;;;;;;;;2614692;47;20146;-87
2021/08/19 15:41:10;;;;;;;12.73;6.63;;;;;;;;;;2613505;47;20023;-88
2021/08/19 15:43:46;;;;;;;15.35;7.50;;;;;;;;;;2614133;47;20045;-89
2021/08/19 15:46:13;;;;;;;15.95;7.35;;;;;;;;;;2614201;46;20031;-87
2021/08/19 15:48:39;;;;;;;15.23;7.20;;;;;;;;;;2614449;46;20139;-88
2021/08/19 15:51:05;;;;;;;14.77;8.15;;;;;;;;;;2614072;46;20030;-90
2021/08/19 15:53:32;;;;;;;16.52;7.88;;;;;;;;;;2614770;46;20038;-91
2021/08/19 15:55:59;;;;;;;11.82;6.78;;;;;;;;;;2614065;47;20030;-90
2021/08/19 15:58:25;;;;;;;14.85;7.35;;;;;;;;;;2618698;46;20034;-90
2021/08/19 16:00:51;;;;;;;13.43;7.20;;;;;;;;;;2613532;46;20042;-86
2021/08/19 16:03:17;;;;;;;12.80;7.60;;;;;;;;;;2612686;47;20026;-91
2021/08/19 16:05:43;;;;;;;13.73;7.88;;;;;;;;;;2613320;39;20526;-90
2021/08/19 16:08:09;;;;;;;13.43;7.43;;;;;;;;;;2613767;54;20038;-89
2021/08/19 16:10:35;;;;;;;18.70;7.53;;;;;;;;;;2613146;46;20038;-90
2021/08/19 16:13:01;;;;;;;14.68;8.35;;;;;;;;;;2613791;46;20042;-90
2021/08/19 16:15:27;;;;;;;19.90;8.85;;;;;;;;;;2613440;47;20050;-89
2021/08/19 16:17:53;;;;;;;15.95;8.52;;;;;;;;;;2615294;47;20535;-91
2021/08/19 16:20:19;;;;;;;18.80;8.18;;;;;;;;;;2614678;46;20046;-90
2021/08/19 16:22:46;;;;;;;14.13;8.80;;;;;;;;;;2616545;47;20019;-90
2021/08/19 16:25:14;;;;;;;15.73;8.18;;;;;;;;;;2623989;46;20026;-86
2021/08/19 16:27:43;;;;;;;16.48;9.05;;;;;;;;;;2623986;46;20045;-88
2021/08/19 16:30:10;;;;;;;14.52;9.20;;;;;;;;;;2615966;47;20030;-89
2021/08/19 16:32:36;;;;;;;19.77;8.88;;;;;;;;;;2614152;46;20092;-88
2021/08/19 16:35:02;;;;;;;19.05;9.15;;;;;;;;;;2614399;46;20038;-88
2021/08/19 16:37:28;;;;;;;20.17;9.52;;;;;;;;;;2613919;47;20523;-89
2021/08/19 16:39:54;;;;;;;14.40;8.90;;;;;;;;;;2612718;46;20057;-88
2021/08/19 16:42:20;;;;;;;17.30;9.10;;;;;;;;;;2614383;46;20038;-88
2021/08/19 16:44:46;;;;;;;14.65;9.00;;;;;;;;;;2613735;47;20457;-88
2021/08/19 16:47:12;;;;;;;15.30;9.38;;;;;;;;;;2618871;47;20030;-89
2021/08/19 16:49:38;;;;;;;15.98;9.30;;;;;;;;;;2624901;46;20010;-90
2021/08/19 16:52:05;;;;;;;16.73;8.48;;;;;;;;;;2626672;46;20102;-87
2021/08/19 16:54:31;;;;;;;19.15;9.40;;;;;;;;;;2614578;47;20038;-89
2021/08/19 16:56:57;;;;;;;21.13;9.40;;;;;;;;;;2613275;47;20547;-88
2021/08/19 16:59:23;;;;;;;18.45;9.45;;;;;;;;;;2614361;47;20030;-88
2021/08/19 17:01:49;;;;;;;20.33;10.52;;;;;;;;;;2614564;46;20031;-90
2021/08/19 17:04:21;;;;;;;19.65;11.50;;;;;;;;;;2614950;46;20061;-88
2021/08/19 17:06:48;;;;;;;20.05;10.52;;;;;;;;;;2614092;54;20027;-90
2021/08/19 17:09:14;;;;;;;19.10;10.40;;;;;;;;;;2614467;47;20030;-91
2021/08/19 17:11:40;;;;;;;18.58;9.80;;;;;;;;;;2613879;46;20045;-90
2021/08/19 17:14:06;;;;;;;18.40;10.80;;;;;;;;;;2615097;47;20540;-88
2021/08/19 17:16:32;;;;;;;16.75;9.75;;;;;;;;;;2613790;54;20065;-89
2021/08/19 17:18:58;;;;;;;20.80;10.85;;;;;;;;;;2613905;46;20023;-88
2021/08/19 17:21:25;;;;;;;18.58;9.38;;;;;;;;;;2615199;47;20098;-89
2021/08/19 17:23:51;;;;;;;16.88;10.68;;;;;;;;;;2614814;46;20030;-89
2021/08/19 17:26:17;;;;;;;15.13;9.68;;;;;;;;;;2613725;47;20030;-90
2021/08/19 17:28:46;;;;;;;15.13;8.65;;;;;;;;;;2615256;46;20052;-90
2021/08/19 17:31:12;;;;;;;16.40;9.45;;;;;;;;;;2616035;46;20035;-90
2021/08/19 17:33:39;;;;;;;21.77;9.95;;;;;;;;;;2614230;54;20027;-89
2021/08/19 17:36:05;;;;;;;15.27;9.88;;;;;;;;;;2613770;39;20435;-89
2021/08/19 17:38:31;;;;;;;14.95;8.50;;;;;;;;;;2614355;46;20038;-90
2021/08/19 17:40:59;;;;;;;18.90;8.50;;;;;;;;;;2614415;54;20050;-90
2021/08/19 17:43:26;;;;;;;12.98;8.32;;;;;;;;;;2614654;54;20062;-91
2021/08/19 17:45:52;;;;;;;15.90;8.35;;;;;;;;;;2614107;47;20037;-90
2021/08/19 17:48:19;;;;;;;19.42;9.40;;;;;;;;;;2615815;54;20543;-90
2021/08/19 17:50:46;;;;;;;23.48;9.32;;;;;;;;;;2615191;47;20034;-90
2021/08/19 17:53:13;;;;;;;19.52;9.63;;;;;;;;;;2615149;46;20088;-91
2021/08/19 17:55:39;;;;;;;14.57;8.50;;;;;;;;;;2615401;47;20038;-91
2021/08/19 17:58:05;;;;;;;19.23;10.18;;;;;;;;;;2615396;47;20037;-89
2021/08/19 18:00:32;;;;;;;18.08;9.80;;;;;;;;;;2615650;46;20030;-90
2021/08/19 18:02:58;;;;;;;17.02;10.10;;;;;;;;;;2615748;54;20027;-90
2021/08/19 18:05:27;;;;;;;15.27;9.73;;;;;;;;;;2618419;54;20116;-90
2021/08/19 18:08:03;;;;;;;18.58;9.85;;;;;;;;;;2620424;54;20129;-90
2021/08/19 18:10:36;;;;;;;18.25;9.13;;;;;;;;;;2620437;47;20579;-91
2021/08/19 18:13:02;;;;;;;17.00;9.70;;;;;;;;;;2623618;54;20081;-89
2021/08/19 18:15:28;;;;;;;19.33;10.38;;;;;;;;;;2621660;54;20034;-90
2021/08/19 18:17:54;;;;;;;15.93;9.48;;;;;;;;;;2621322;47;20082;-89
2021/08/19 18:20:21;;;;;;;18.23;9.27;;;;;;;;;;2618181;54;20026;-89
2021/08/19 18:22:47;;;;;;;13.98;9.55;;;;;;;;;;2617827;54;20026;-89
2021/08/19 18:25:14;;;;;;;16.17;9.23;;;;;;;;;;2617227;47;20026;-90
2021/08/19 18:27:42;;;;;;;16.58;8.60;;;;;;;;;;2615667;39;20423;-91
2021/08/19 18:30:11;;;;;;;16.75;8.57;;;;;;;;;;2614217;54;20042;-89
2021/08/19 18:32:37;;;;;;;22.50;9.68;;;;;;;;;;2614060;54;20041;-90
2021/08/19 18:35:04;;;;;;;25.60;10.73;;;;;;;;;;2613626;47;20030;-91
2021/08/19 18:37:30;;;;;;;17.08;8.20;;;;;;;;;;2614585;54;20129;-90
2021/08/19 18:39:56;;;;;;;14.05;9.27;;;;;;;;;;2613435;47;20069;-90
2021/08/19 18:42:23;;;;;;;15.05;9.25;;;;;;;;;;2614369;47;20130;-92
2021/08/19 18:44:50;;;;;;;17.42;10.45;;;;;;;;;;2614618;47;20035;-90
2021/08/19 18:47:16;;;;;;;30.27;16.10;;;;;;;;;;2615574;54;20023;-91
2021/08/19 18:49:42;;;;;;;16.83;10.77;;;;;;;;;;2615937;39;20432;-90
2021/08/19 18:52:08;;;;;;;17.95;10.95;;;;;;;;;;2613699;47;20045;-91
2021/08/19 18:54:34;;;;;;;21.02;11.73;;;;;;;;;;2613116;47;20511;-90
2021/08/19 18:57:01;;;;;;;19.70;12.73;;;;;;;;;;2613938;47;20034;-90
2021/08/19 18:59:27;;;;;;;20.75;12.93;;;;;;;;;;2613239;47;20077;-91
2021/08/19 19:01:53;;;;;;;22.73;12.95;;;;;;;;;;2612878;54;20073;-90
2021/08/19 19:04:20;;;;;;;24.42;13.40;;;;;;;;;;2611701;54;20031;-90
2021/08/19 19:06:46;;;;;;;25.60;15.30;;;;;;;;;;2613007;54;20058;-90
2021/08/19 19:09:13;;;;;;;26.13;16.05;;;;;;;;;;2613853;47;20042;-89
2021/08/19 19:11:40;;;;;;;26.08;15.85;;;;;;;;;;2612493;47;20081;-90
2021/08/19 19:14:07;;;;;;;26.83;17.20;;;;;;;;;;2614095;54;20575;-90
2021/08/19 19:16:34;;;;;;;28.63;16.55;;;;;;;;;;2613523;47;20459;-91
2021/08/19 19:19:00;;;;;;;33.67;17.40;;;;;;;;;;2615143;54;20035;-91
2021/08/19 19:21:26;;;;;;;28.50;17.60;;;;;;;;;;2614082;47;20031;-90
2021/08/19 19:23:52;;;;;;;29.38;17.75;;;;;;;;;;2614630;47;20084;-91
2021/08/19 19:26:19;;;;;;;31.73;19.48;;;;;;;;;;2614181;47;20034;-88
2021/08/19 19:28:49;;;;;;;28.17;18.83;;;;;;;;;;2615335;47;20034;-89
2021/08/19 19:31:18;;;;;;;25.55;16.75;;;;;;;;;;2614126;46;20057;-89
2021/08/19 19:33:47;;;;;;;32.63;19.00;;;;;;;;;;2619630;47;20026;-89
2021/08/19 19:36:16;;;;;;;31.77;17.67;;;;;;;;;;2624923;54;20046;-89
2021/08/19 19:38:42;;;;;;;33.65;18.40;;;;;;;;;;2618748;54;20034;-91
2021/08/19 19:41:08;;;;;;;27.05;18.05;;;;;;;;;;2616490;54;20034;-89
2021/08/19 19:43:35;;;;;;;21.17;15.30;;;;;;;;;;2615176;47;20050;-89
2021/08/19 19:46:01;;;;;;;18.73;12.82;;;;;;;;;;2615249;54;20118;-89
2021/08/19 19:48:28;;;;;;;20.27;12.85;;;;;;;;;;2614011;54;20031;-89
2021/08/19 19:50:55;;;;;;;14.15;11.02;;;;;;;;;;2614178;46;20038;-89
2021/08/19 19:53:21;;;;;;;10.90;9.05;;;;;;;;;;2613989;46;20066;-90
2021/08/19 19:55:47;;;;;;;15.27;9.20;;;;;;;;;;2614640;46;20030;-91
2021/08/19 19:58:13;;;;;;;11.50;8.70;;;;;;;;;;2614152;54;20042;-89
2021/08/19 20:00:39;;;;;;;9.85;8.32;;;;;;;;;;2614967;39;20171;-89
2021/08/19 20:03:05;;;;;;;11.60;6.53;;;;;;;;;;2616776;46;20484;-89
2021/08/19 20:05:32;;;;;;;5.95;5.35;;;;;;;;;;2616890;54;20022;-90
2021/08/19 20:07:58;;;;;;;4.57;4.15;;;;;;;;;;2617908;54;20034;-88
2021/08/19 20:10:26;;;;;;;4.70;4.20;;;;;;;;;;2614268;54;20027;-89
2021/08/19 20:12:52;;;;;;;5.22;3.95;;;;;;;;;;2616009;39;20447;-91
2021/08/19 20:15:18;;;;;;;6.15;4.88;;;;;;;;;;2615435;46;20114;-90
2021/08/19 20:17:45;;;;;;;5.35;4.85;;;;;;;;;;2615223;47;20035;-90
2021/08/19 20:20:11;;;;;;;6.20;4.20;;;;;;;;;;2615198;46;20038;-89
2021/08/19 20:22:37;;;;;;;4.70;3.78;;;;;;;;;;2614818;46;20041;-90
2021/08/19 20:25:04;;;;;;;7.80;4.90;;;;;;;;;;2615035;46;20065;-90
2021/08/19 20:27:30;;;;;;;5.10;4.30;;;;;;;;;;2614649;39;20547;-90
2021/08/19 20:29:56;;;;;;;6.38;4.20;;;;;;;;;;2617384;46;20069;-92
2021/08/19 20:32:25;;;;;;;5.80;5.22;;;;;;;;;;2623380;54;20023;-90
2021/08/19 20:34:51;;;;;;;6.95;5.03;;;;;;;;;;2623276;47;20524;-88
2021/08/19 20:37:17;;;;;;;5.45;4.95;;;;;;;;;;2624103;46;20011;-91
2021/08/19 20:39:46;;;;;;;5.78;4.57;;;;;;;;;;2622756;46;20069;-90
2021/08/19 20:42:15;;;;;;;7.30;4.27;;;;;;;;;;2618057;39;20442;-90
2021/08/19 20:44:41;;;;;;;7.32;4.57;;;;;;;;;;2616631;46;20034;-89